createdAt,value
2018-12-04T00:00:09.068Z,24.17
2018-12-04T00:05:14.584Z,22.90
2018-12-04T00:10:18.719Z,22.30
2018-12-04T00:15:23.140Z,22.80
2018-12-04T00:20:27.652Z,21.33
2018-12-04T00:25:31.891Z,22.13
2018-12-04T00:30:41.023Z,21.23
2018-12-04T00:35:45.325Z,22.07
2018-12-04T00:40:49.563Z,23.40
2018-12-04T00:45:54.031Z,24.77
2018-12-04T00:50:58.215Z,28.93
2018-12-04T00:56:02.762Z,26.33
2018-12-04T01:01:07.515Z,23.70
2018-12-04T01:06:12.133Z,21.80
2018-12-04T01:11:16.570Z,21.67
2018-12-04T01:16:38.248Z,23.87
2018-12-04T01:21:42.658Z,21.37
2018-12-04T01:26:47.003Z,28.23
2018-12-04T01:31:51.416Z,18.57
2018-12-04T01:36:56.020Z,19.53
2018-12-04T01:42:00.325Z,19.87
2018-12-04T01:47:04.569Z,26.80
2018-12-04T01:52:08.932Z,23.90
2018-12-04T01:57:13.295Z,25.40
2018-12-04T02:02:17.922Z,25.53
2018-12-04T02:07:22.185Z,20.20
2018-12-04T02:12:27.054Z,21.90
2018-12-04T02:17:31.398Z,21.60
2018-12-04T02:22:36.547Z,24.20
2018-12-04T02:27:40.798Z,27.47
2018-12-04T02:32:45.667Z,23.43
2018-12-04T02:37:50.567Z,25.07
2018-12-04T02:42:54.794Z,26.07
2018-12-04T02:47:59.394Z,27.40
2018-12-04T02:53:03.788Z,26.43
2018-12-04T02:58:08.715Z,23.43
2018-12-04T03:03:13.570Z,22.30
2018-12-04T03:08:17.841Z,19.13
2018-12-04T03:13:22.273Z,20.00
2018-12-04T03:18:27.018Z,21.00
2018-12-04T03:23:31.248Z,19.33
2018-12-04T03:28:35.647Z,23.00
2018-12-04T03:33:53.459Z,24.37
2018-12-04T03:38:57.754Z,18.10
2018-12-04T03:44:03.082Z,21.30
2018-12-04T03:49:08.556Z,24.87
2018-12-04T03:54:19.453Z,29.27
2018-12-04T03:59:24.164Z,25.00
2018-12-04T04:04:28.332Z,24.27
2018-12-04T04:09:32.463Z,24.30
2018-12-04T04:14:38.718Z,21.80
2018-12-04T04:19:42.906Z,23.27
2018-12-04T04:24:47.122Z,22.40
2018-12-04T04:29:51.598Z,23.00
2018-12-04T04:34:55.944Z,24.30
2018-12-04T04:40:01.407Z,23.93
2018-12-04T04:45:06.755Z,27.93
2018-12-04T04:50:11.161Z,26.50
2018-12-04T04:55:15.557Z,24.70
2018-12-04T05:00:21.173Z,26.87
2018-12-04T05:05:25.716Z,25.20
2018-12-04T05:10:30.018Z,22.93
2018-12-04T05:15:35.016Z,24.60
2018-12-04T05:20:39.233Z,21.87
2018-12-04T05:25:43.573Z,21.67
2018-12-04T05:30:47.820Z,22.80
2018-12-04T05:35:52.185Z,22.00
2018-12-04T05:40:56.428Z,24.93
2018-12-04T05:46:01.008Z,26.90
2018-12-04T05:51:05.958Z,24.37
2018-12-04T05:56:12.490Z,28.00
2018-12-04T06:01:17.030Z,27.50
2018-12-04T06:06:22.106Z,28.77
2018-12-04T06:11:31.306Z,29.40
2018-12-04T06:16:35.848Z,22.87
2018-12-04T06:21:41.319Z,24.60
2018-12-04T06:26:46.962Z,22.60
2018-12-04T06:31:57.383Z,24.97
2018-12-04T06:37:01.757Z,26.53
2018-12-04T06:42:06.202Z,34.13
2018-12-04T06:47:10.447Z,27.80
2018-12-04T06:52:16.228Z,29.40
2018-12-04T06:57:20.718Z,35.27
2018-12-04T07:02:25.007Z,28.73
2018-12-04T07:07:29.193Z,24.20
2018-12-04T07:12:33.410Z,24.43
2018-12-04T07:17:47.008Z,25.93
2018-12-04T07:22:51.746Z,27.60
2018-12-04T07:27:57.467Z,27.60
2018-12-04T07:33:12.804Z,26.40
2018-12-04T07:38:16.973Z,27.13
2018-12-04T07:43:21.342Z,26.43
2018-12-04T07:48:26.179Z,26.17
2018-12-04T07:53:30.452Z,24.87
2018-12-04T07:58:34.760Z,26.23
2018-12-04T08:03:39.001Z,23.33
2018-12-04T08:08:49.049Z,23.03
2018-12-04T08:13:53.265Z,25.53
2018-12-04T08:18:57.541Z,25.27
2018-12-04T08:24:01.939Z,24.07
2018-12-04T08:29:06.319Z,26.63
2018-12-04T08:34:11.289Z,27.47
2018-12-04T08:39:15.625Z,27.57
2018-12-04T08:44:20.020Z,23.27
2018-12-04T08:49:24.474Z,23.00
2018-12-04T08:54:28.841Z,22.13
2018-12-04T08:59:33.173Z,22.87
2018-12-04T09:04:37.828Z,27.67
2018-12-04T09:09:42.105Z,23.47
2018-12-04T09:14:46.639Z,25.13
2018-12-04T09:19:51.095Z,25.20
2018-12-04T09:24:55.631Z,23.57
2018-12-04T09:30:00.121Z,25.50
2018-12-04T09:35:04.942Z,25.80
2018-12-04T09:40:10.903Z,24.27
2018-12-04T09:45:21.345Z,23.23
2018-12-04T09:50:25.681Z,21.03
2018-12-04T09:55:30.047Z,19.70
2018-12-04T10:00:34.478Z,20.37
2018-12-04T10:05:39.295Z,22.00
2018-12-04T10:10:43.908Z,22.20
2018-12-04T10:15:48.204Z,21.77
2018-12-04T10:20:52.744Z,24.50
2018-12-04T10:25:57.024Z,24.73
2018-12-04T10:31:10.798Z,23.70
2018-12-04T10:36:15.126Z,26.33
2018-12-04T10:41:19.480Z,26.53
2018-12-04T10:46:23.692Z,25.60
2018-12-04T10:51:32.970Z,21.67
2018-12-04T10:56:37.163Z,20.47
2018-12-04T11:01:51.551Z,19.00
2018-12-04T11:06:55.812Z,23.40
2018-12-04T11:12:00.028Z,23.37
2018-12-04T11:17:04.273Z,24.90
2018-12-04T11:22:08.692Z,25.70
2018-12-04T11:27:13.002Z,19.90
2018-12-04T11:32:22.320Z,22.00
2018-12-04T11:37:26.559Z,21.50
2018-12-04T11:42:30.862Z,20.37
2018-12-04T11:47:35.151Z,21.50
2018-12-04T11:52:39.304Z,22.17
2018-12-04T11:57:46.273Z,20.30
2018-12-04T12:02:51.562Z,21.43
2018-12-04T12:07:55.875Z,22.80
2018-12-04T12:13:00.370Z,19.93
2018-12-04T12:18:04.804Z,24.23
2018-12-04T12:23:09.044Z,20.43
2018-12-04T12:28:13.562Z,22.60
2018-12-04T12:33:17.818Z,22.60
2018-12-04T12:38:24.409Z,24.30
2018-12-04T12:49:04.112Z,19.37
2018-12-04T12:54:09.206Z,20.43
2018-12-04T12:59:13.532Z,20.53
2018-12-04T13:04:22.924Z,22.40
2018-12-04T13:09:27.451Z,27.43
2018-12-04T13:14:32.547Z,21.63
2018-12-04T13:19:37.994Z,20.93
2018-12-04T13:24:42.680Z,20.87
2018-12-04T13:29:47.667Z,21.13
2018-12-04T13:34:52.107Z,21.70
2018-12-04T13:39:57.898Z,23.20
2018-12-04T13:45:02.693Z,26.03
2018-12-04T13:50:09.632Z,20.30
2018-12-04T13:55:14.376Z,19.50
2018-12-04T14:00:18.823Z,23.00
2018-12-04T14:05:23.548Z,22.40
2018-12-04T14:10:30.743Z,20.23
2018-12-04T14:15:35.142Z,18.77
2018-12-04T14:20:39.370Z,23.23
2018-12-04T14:25:49.274Z,26.33
2018-12-04T14:30:55.576Z,26.00
2018-12-04T14:36:00.578Z,28.73
2018-12-04T14:41:04.978Z,26.43
2018-12-04T14:46:10.182Z,22.67
2018-12-04T14:51:15.611Z,21.93
2018-12-04T14:56:20.908Z,20.23
2018-12-04T15:01:25.231Z,20.87
2018-12-04T15:06:29.842Z,20.83
2018-12-04T15:11:35.632Z,19.87
2018-12-04T15:16:40.663Z,20.93
2018-12-04T15:21:45.364Z,20.87
2018-12-04T15:26:49.925Z,21.27
2018-12-04T15:31:54.320Z,21.70
2018-12-04T15:36:58.595Z,23.10
2018-12-04T15:42:03.480Z,21.63
2018-12-04T15:47:08.077Z,20.60
2018-12-04T15:52:12.357Z,18.00
2018-12-04T15:57:16.657Z,19.10
2018-12-04T16:02:20.904Z,21.97
2018-12-04T16:07:25.167Z,23.23
2018-12-04T16:12:29.399Z,26.40
2018-12-04T16:17:33.673Z,28.23
2018-12-04T16:22:37.991Z,22.47
2018-12-04T16:27:42.297Z,18.57
2018-12-04T16:32:46.718Z,22.70
2018-12-04T16:38:05.011Z,20.93
2018-12-04T16:43:09.462Z,23.13
2018-12-04T16:48:13.905Z,20.63
2018-12-04T16:53:18.244Z,19.47
2018-12-04T16:58:22.542Z,21.13
2018-12-04T17:03:27.348Z,21.10
2018-12-04T17:08:31.871Z,21.60
2018-12-04T17:13:41.085Z,19.23
2018-12-04T17:18:45.478Z,24.70
2018-12-04T17:23:49.899Z,28.60
2018-12-04T17:28:54.271Z,22.17
2018-12-04T17:33:58.642Z,22.13
2018-12-04T17:39:03.406Z,21.03
2018-12-04T17:44:09.753Z,23.27
2018-12-04T17:49:14.095Z,24.93
2018-12-04T17:54:18.591Z,22.30
2018-12-04T17:59:24.955Z,22.63
2018-12-04T18:04:29.229Z,21.53
2018-12-04T18:09:36.017Z,24.47
2018-12-04T18:14:42.539Z,22.53
2018-12-04T18:19:46.867Z,25.17
2018-12-04T18:24:51.255Z,25.23
2018-12-04T18:29:55.727Z,30.27
2018-12-04T18:35:01.401Z,30.73
2018-12-04T18:40:06.910Z,29.40
2018-12-04T18:45:16.397Z,30.30
2018-12-04T18:50:20.913Z,28.90
2018-12-04T18:55:25.171Z,27.13
2018-12-04T19:00:29.551Z,29.17
2018-12-04T19:05:34.018Z,26.87
2018-12-04T19:10:38.724Z,29.23
2018-12-04T19:15:43.582Z,31.63
2018-12-04T19:20:47.977Z,31.67
2018-12-04T19:25:53.263Z,33.37
2018-12-04T19:31:02.739Z,26.33
2018-12-04T19:36:04.639Z,29.87
2018-12-04T19:41:09.119Z,32.10
2018-12-04T19:46:13.661Z,32.57
2018-12-04T19:51:18.961Z,34.13
2018-12-04T19:56:24.143Z,34.47
2018-12-04T20:01:33.576Z,39.70
2018-12-04T20:06:38.764Z,39.60
2018-12-04T20:11:44.214Z,35.90
2018-12-04T20:16:48.558Z,36.13
2018-12-04T20:21:53.156Z,38.20
2018-12-04T20:26:57.638Z,45.80
2018-12-04T20:32:09.103Z,41.57
2018-12-04T20:37:13.595Z,35.47
2018-12-04T20:42:23.198Z,39.30
2018-12-04T20:47:24.354Z,39.57
2018-12-04T20:52:28.825Z,35.77
2018-12-04T20:57:33.134Z,36.40
2018-12-04T21:02:37.327Z,36.60
2018-12-04T21:07:42.022Z,39.93
2018-12-04T21:12:46.483Z,40.17
2018-12-04T21:17:50.948Z,39.43
2018-12-04T21:22:56.463Z,42.83
2018-12-04T21:28:06.713Z,44.00
2018-12-04T21:33:16.515Z,38.83
2018-12-04T21:38:26.038Z,42.10
2018-12-04T21:43:35.537Z,42.93
2018-12-04T21:48:40.917Z,40.43
2018-12-04T21:53:45.670Z,42.67
2018-12-04T21:58:50.245Z,44.23
2018-12-04T22:03:57.633Z,43.50
2018-12-04T22:09:02.067Z,38.83
2018-12-04T22:19:23.967Z,44.90
2018-12-04T22:24:28.723Z,42.87
2018-12-04T22:29:41.046Z,39.63
2018-12-04T22:34:45.461Z,39.60
2018-12-04T22:39:50.197Z,42.80
2018-12-04T22:44:59.359Z,40.03
2018-12-04T22:50:03.973Z,41.80
2018-12-04T22:55:08.186Z,48.67
2018-12-04T23:00:22.087Z,41.40
2018-12-04T23:05:28.372Z,46.70
2018-12-04T23:10:38.404Z,44.90
2018-12-04T23:15:42.731Z,40.47
2018-12-04T23:20:47.023Z,33.97
2018-12-04T23:25:55.607Z,36.53
2018-12-04T23:30:59.945Z,41.07
2018-12-04T23:36:04.230Z,37.00
2018-12-04T23:41:08.534Z,38.10
2018-12-04T23:46:13.879Z,30.13
2018-12-04T23:51:18.271Z,37.60
2018-12-04T23:56:24.639Z,30.63
